Time;durP1;ratioP1;P1;durP2;ratioP2;P2;SDS_P1;SDS_P2;PMS_P1;PMS_P2;Temp;Humidity;BMP_temperature;BMP_pressure;BME280_temperature;BME280_humidity;BME280_pressure;Samples;Min_cycle;Max_cycle;Signal;HPM_P1;HPM_P2
2023/11/12 00:02:04;;;;;;;6.15;3.67;;;;;;;13.96;47.49;100362.53;5032679;28;20017;-57
2023/11/12 00:04:30;;;;;;;5.40;3.30;;;;;;;13.93;46.68;100369.06;5032782;28;20021;-57
2023/11/12 00:06:55;;;;;;;5.63;4.22;;;;;;;13.90;46.68;100353.25;4998461;28;20104;-58
2023/11/12 00:09:22;;;;;;;7.65;3.78;;;;;;;13.87;46.96;100358.13;5032575;28;20092;-57
2023/11/12 00:11:47;;;;;;;7.07;3.80;;;;;;;13.83;47.00;100364.84;5034083;28;21592;-57
2023/11/12 00:14:13;;;;;;;4.80;3.63;;;;;;;13.80;46.76;100362.47;5035244;28;20060;-57
2023/11/12 00:16:39;;;;;;;8.20;3.55;;;;;;;13.76;47.53;100364.63;5018200;28;20385;-57
2023/11/12 00:19:04;;;;;;;8.32;4.20;;;;;;;13.66;47.67;100371.13;5036337;28;20041;-57
2023/11/12 00:21:30;;;;;;;6.05;3.38;;;;;;;13.64;47.26;100367.75;5035170;28;20038;-57
2023/11/12 00:23:55;;;;;;;5.97;3.50;;;;;;;13.60;46.38;100366.38;5018733;28;20044;-57
2023/11/12 00:26:24;;;;;;;5.93;3.38;;;;;;;13.53;47.30;100368.03;5035754;28;20116;-57
2023/11/12 00:28:50;;;;;;;6.53;3.63;;;;;;;13.50;47.04;100365.66;5016670;28;20118;-57
2023/11/12 00:31:15;;;;;;;5.07;3.50;;;;;;;13.41;47.19;100352.16;5015185;28;20036;-58
2023/11/12 00:33:40;;;;;;;7.43;4.63;;;;;;;13.42;46.37;100353.03;5014950;28;20108;-57
2023/11/12 00:36:06;;;;;;;7.60;4.10;;;;;;;13.41;46.60;100345.94;5015786;28;20120;-57
2023/11/12 00:38:31;;;;;;;8.30;4.25;;;;;;;13.40;47.19;100349.63;5036199;28;20082;-57
2023/11/12 00:40:57;;;;;;;11.45;3.63;;;;;;;13.38;47.27;100349.78;5036457;28;20392;-57
2023/11/12 00:43:27;;;;;;;9.02;4.53;;;;;;;13.40;47.85;100350.47;5036486;28;20055;-57
2023/11/12 00:45:57;;;;;;;9.38;3.90;;;;;;;13.43;47.12;100353.88;5002886;28;20041;-57
2023/11/12 00:48:22;;;;;;;7.43;4.03;;;;;;;13.40;47.69;100342.41;5036323;28;20121;-57
2023/11/12 00:50:48;;;;;;;5.38;3.38;;;;;;;13.40;47.69;100333.47;5036383;28;20060;-58
2023/11/12 00:53:13;;;;;;;8.38;4.20;;;;;;;13.40;46.87;100336.16;5018559;28;20444;-57
2023/11/12 00:55:39;;;;;;;8.90;4.05;;;;;;;13.39;47.30;100342.56;5036160;28;20559;-56
2023/11/12 00:58:05;;;;;;;7.95;3.97;;;;;;;13.34;47.87;100328.75;5018581;28;20049;-57
2023/11/12 01:00:30;;;;;;;9.38;4.88;;;;;;;13.34;46.89;100332.28;5018361;28;20055;-57
2023/11/12 01:02:55;;;;;;;12.30;5.60;;;;;;;13.31;47.02;100324.53;5018412;28;20119;-57
2023/11/12 01:05:21;;;;;;;10.55;4.88;;;;;;;13.33;47.13;100329.75;5035742;28;20033;-57
2023/11/12 01:07:46;;;;;;;8.80;4.95;;;;;;;13.29;47.21;100320.31;5035815;28;20456;-57
2023/11/12 01:10:12;;;;;;;6.28;3.83;;;;;;;13.28;46.95;100324.88;5018200;28;20125;-57
2023/11/12 01:12:37;;;;;;;7.78;3.42;;;;;;;13.26;48.21;100329.53;5001778;28;20026;-57
2023/11/12 01:15:04;;;;;;;7.70;3.88;;;;;;;13.27;47.87;100328.53;5035802;28;20041;-57
2023/11/12 01:17:29;;;;;;;4.97;3.97;;;;;;;13.27;48.00;100328.53;5017897;28;20080;-57
2023/11/12 01:19:55;;;;;;;7.72;3.53;;;;;;;13.27;48.50;100323.16;5018185;28;20056;-57
2023/11/12 01:22:20;;;;;;;9.77;3.58;;;;;;;13.28;46.96;100324.88;5017834;28;20045;-57
2023/11/12 01:24:46;;;;;;;6.95;4.15;;;;;;;13.27;47.90;100336.63;5001695;28;20441;-57
2023/11/12 01:27:11;;;;;;;7.22;3.63;;;;;;;13.28;47.93;100335.63;5018047;28;20041;-57
2023/11/12 01:29:37;;;;;;;11.25;3.78;;;;;;;13.28;47.60;100330.25;5035717;28;20056;-57
2023/11/12 01:32:02;;;;;;;13.40;4.07;;;;;;;13.31;48.12;100334.47;5035770;28;20049;-57
2023/11/12 01:34:27;;;;;;;9.68;4.03;;;;;;;13.31;47.60;100327.25;5001234;28;20108;-57
2023/11/12 01:36:53;;;;;;;6.30;3.72;;;;;;;13.32;48.52;100331.59;5035333;28;20041;-57
2023/11/12 01:39:18;;;;;;;6.13;3.08;;;;;;;13.35;48.09;100336.66;5017622;28;20033;-57
2023/11/12 01:41:43;;;;;;;6.35;3.03;;;;;;;13.35;47.25;100331.28;5035226;28;20037;-57
2023/11/12 01:44:09;;;;;;;6.18;3.20;;;;;;;13.40;48.88;100333.47;5035280;28;20037;-58
2023/11/12 01:46:34;;;;;;;8.50;3.35;;;;;;;13.41;48.49;100341.41;5017871;28;20436;-58
2023/11/12 01:49:00;;;;;;;7.18;2.72;;;;;;;13.39;47.79;100332.66;5000733;28;20037;-57
2023/11/12 01:51:27;;;;;;;6.30;2.35;;;;;;;13.43;48.21;100339.41;5017427;28;20043;-57
2023/11/12 01:53:53;;;;;;;4.55;2.97;;;;;;;13.46;47.76;100340.91;5017521;28;20428;-57
2023/11/12 01:56:19;;;;;;;3.70;2.50;;;;;;;13.47;48.65;100347.16;5017289;28;20525;-57
2023/11/12 01:58:45;;;;;;;3.72;2.92;;;;;;;13.47;47.58;100342.63;5035000;28;20104;-56
2023/11/12 02:01:12;;;;;;;4.93;2.67;;;;;;;13.50;48.30;100345.00;5007522;28;20076;-57
2023/11/12 02:03:41;;;;;;;4.25;2.88;;;;;;;13.49;47.88;100343.28;5017421;28;20037;-57
2023/11/12 02:06:06;;;;;;;4.78;3.25;;;;;;;13.50;48.35;100338.75;5017356;28;20048;-57
2023/11/12 02:08:35;;;;;;;5.53;3.40;;;;;;;13.50;48.83;100334.22;5034997;28;20033;-57
2023/11/12 02:11:07;;;;;;;7.47;3.10;;;;;;;13.53;48.76;100330.38;5034820;28;20092;-57
2023/11/12 02:13:34;;;;;;;5.83;2.70;;;;;;;13.53;48.50;100338.44;5034644;28;20527;-57
2023/11/12 02:16:00;;;;;;;4.78;2.83;;;;;;;13.56;49.42;100338.97;5017158;28;20275;-57
2023/11/12 02:18:25;;;;;;;8.38;2.60;;;;;;;13.57;48.03;100337.13;5034753;28;20542;-58
2023/11/12 02:20:51;;;;;;;5.15;2.22;;;;;;;13.58;48.44;100314.59;5034470;28;20049;-57
2023/11/12 02:23:17;;;;;;;8.75;2.90;;;;;;;13.60;47.88;100328.72;5034706;28;20076;-57
2023/11/12 02:25:44;;;;;;;7.95;2.75;;;;;;;13.63;49.12;100329.25;5017284;28;20033;-57
2023/11/12 02:28:10;;;;;;;9.38;3.17;;;;;;;13.64;48.36;100330.09;5034561;28;20029;-57
2023/11/12 02:30:37;;;;;;;4.95;3.10;;;;;;;13.61;48.90;100325.88;5034495;28;20064;-58
2023/11/12 02:33:03;;;;;;;6.53;2.55;;;;;;;13.64;47.73;100327.41;5016868;28;20124;-57
2023/11/12 02:35:29;;;;;;;3.65;2.50;;;;;;;13.64;49.03;100330.09;5016643;28;20125;-57
2023/11/12 02:37:54;;;;;;;4.78;3.45;;;;;;;13.63;48.01;100323.84;5034184;28;20119;-57
2023/11/12 02:40:20;;;;;;;9.38;3.15;;;;;;;13.64;49.30;100330.09;5016608;28;20034;-57
2023/11/12 02:42:47;;;;;;;5.00;2.83;;;;;;;13.61;48.64;100319.66;5034345;28;20037;-57
2023/11/12 02:45:13;;;;;;;4.00;2.72;;;;;;;13.63;48.02;100317.63;5034059;28;20038;-57
2023/11/12 02:47:40;;;;;;;4.53;2.60;;;;;;;13.62;49.03;100322.19;5034325;28;20036;-57
2023/11/12 02:50:30;;;;;;;4.38;2.53;;;;;;;13.60;48.67;100323.31;5016134;28;20035;-57
2023/11/12 02:52:59;;;;;;;6.95;3.03;;;;;;;13.55;48.69;100312.22;5000362;28;20500;-57
2023/11/12 02:55:25;;;;;;;6.47;2.63;;;;;;;13.56;48.36;100320.13;5033860;28;20038;-57
2023/11/12 02:57:51;;;;;;;6.85;3.75;;;;;;;13.54;48.30;100322.13;4983167;28;20058;-57
2023/11/12 03:00:17;;;;;;;9.13;3.13;;;;;;;13.54;48.90;100316.75;4993834;28;20498;-57
2023/11/12 03:02:46;;;;;;;4.35;2.70;;;;;;;13.53;48.06;100316.91;5000419;28;20042;-57
2023/11/12 03:05:12;;;;;;;3.42;2.28;;;;;;;13.50;48.31;100310.00;4980898;28;20141;-56
2023/11/12 03:07:38;;;;;;;4.85;2.28;;;;;;;13.47;48.41;100313.03;4999379;28;20042;-57
2023/11/12 03:10:05;;;;;;;4.60;2.63;;;;;;;13.43;48.44;100309.81;4998868;28;20041;-57
2023/11/12 03:12:31;;;;;;;5.60;2.50;;;;;;;13.46;48.44;100313.16;4995694;28;20038;-57
2023/11/12 03:14:57;;;;;;;3.92;3.10;;;;;;;13.43;48.65;100311.63;4960835;28;20041;-57
2023/11/12 03:17:22;;;;;;;5.18;2.50;;;;;;;13.40;48.19;100307.44;4994056;28;20038;-57
2023/11/12 03:19:49;;;;;;;3.33;2.50;;;;;;;13.42;48.96;100304.59;4976783;28;20034;-57
2023/11/12 03:22:15;;;;;;;3.30;2.20;;;;;;;13.41;49.37;100306.44;4993907;28;20058;-57
2023/11/12 03:24:41;;;;;;;6.68;2.30;;;;;;;13.41;47.76;100302.91;5013468;28;20037;-57
2023/11/12 03:27:08;;;;;;;9.98;2.65;;;;;;;13.38;49.07;100301.38;4996016;28;20038;-57
2023/11/12 03:29:33;;;;;;;4.93;2.40;;;;;;;13.39;49.20;100303.06;4996216;28;20100;-57
2023/11/12 03:31:59;;;;;;;4.35;2.42;;;;;;;13.37;48.40;100301.53;4995819;28;20034;-57
2023/11/12 03:34:24;;;;;;;4.88;2.10;;;;;;;13.27;48.90;100285.50;5013625;28;20109;-57
2023/11/12 03:36:50;;;;;;;4.25;2.78;;;;;;;13.30;47.57;100289.72;5013302;28;20037;-57
2023/11/12 03:39:15;;;;;;;3.22;2.28;;;;;;;13.27;47.87;100288.19;5013423;28;20034;-57
2023/11/12 03:41:41;;;;;;;4.55;2.30;;;;;;;13.21;48.03;100285.28;5013372;28;20082;-56
2023/11/12 03:44:07;;;;;;;7.03;2.30;;;;;;;13.19;48.41;100279.25;5013305;28;20034;-57
2023/11/12 03:46:34;;;;;;;2.20;1.90;;;;;;;13.14;47.57;100274.34;4996005;28;20037;-57
2023/11/12 03:49:00;;;;;;;6.63;2.45;;;;;;;13.11;48.30;100277.34;4996055;28;20050;-57
2023/11/12 03:51:26;;;;;;;6.88;2.50;;;;;;;13.08;48.93;100285.72;4995536;28;20378;-57
2023/11/12 03:53:51;;;;;;;4.35;2.25;;;;;;;13.03;48.80;100274.59;5013395;28;20556;-57
2023/11/12 03:56:16;;;;;;;4.60;2.95;;;;;;;13.03;47.71;100273.75;5013396;28;20029;-57
2023/11/12 03:58:42;;;;;;;3.92;2.00;;;;;;;13.00;47.86;100277.59;4979431;28;20532;-57
2023/11/12 04:01:07;;;;;;;6.80;2.53;;;;;;;12.99;48.40;100275.03;4995673;28;20429;-57
2023/11/12 04:03:33;;;;;;;5.97;2.75;;;;;;;12.96;47.30;100269.97;5013110;28;20026;-57
2023/11/12 04:05:58;;;;;;;4.78;2.75;;;;;;;12.95;48.29;100274.53;5013280;28;20026;-57
2023/11/12 04:08:23;;;;;;;3.47;2.15;;;;;;;12.87;48.26;100261.00;4963601;28;20045;-57
2023/11/12 04:10:49;;;;;;;3.03;2.20;;;;;;;12.85;48.05;100257.66;4996142;28;20022;-57
2023/11/12 04:13:15;;;;;;;2.38;2.17;;;;;;;12.81;48.33;100264.34;4999661;28;20045;-57
2023/11/12 04:15:41;;;;;;;5.95;2.28;;;;;;;12.75;47.31;100268.50;4995122;28;20073;-57
2023/11/12 04:18:06;;;;;;;6.47;2.35;;;;;;;12.68;47.21;100266.59;4979934;28;20109;-57
2023/11/12 04:20:32;;;;;;;3.90;2.15;;;;;;;12.64;48.26;100267.91;4978874;28;20054;-57
2023/11/12 04:22:58;;;;;;;7.28;2.22;;;;;;;12.60;47.92;100272.75;4963907;28;20535;-57
2023/11/12 04:25:23;;;;;;;7.13;2.90;;;;;;;12.56;47.17;100267.84;4979888;28;20045;-57
2023/11/12 04:27:49;;;;;;;5.72;3.45;;;;;;;12.51;47.36;100271.00;4985979;28;20393;-57
2023/11/12 04:30:15;;;;;;;3.65;2.28;;;;;;;12.46;47.29;100264.41;5017337;28;20370;-57
2023/11/12 04:32:41;;;;;;;2.80;2.15;;;;;;;12.44;47.58;100271.78;4999447;28;20492;-57
2023/11/12 04:35:07;;;;;;;3.95;2.40;;;;;;;12.39;47.08;100266.03;4999413;28;20029;-57
2023/11/12 04:37:32;;;;;;;2.55;2.03;;;;;;;12.32;48.31;100270.31;5016533;28;20026;-57
2023/11/12 04:39:59;;;;;;;4.10;3.20;;;;;;;12.28;48.45;100284.03;5016700;28;20033;-57
2023/11/12 04:42:25;;;;;;;7.28;2.65;;;;;;;12.24;48.08;100279.16;4999520;28;20113;-57
2023/11/12 04:44:50;;;;;;;2.05;1.85;;;;;;;12.23;47.88;100285.50;4982943;28;20466;-57
2023/11/12 04:47:15;;;;;;;7.15;2.40;;;;;;;12.20;47.49;100286.66;4998938;28;20405;-57
2023/11/12 04:49:41;;;;;;;4.65;2.45;;;;;;;12.18;48.20;100285.97;5016622;28;20060;-57
2023/11/12 04:52:06;;;;;;;8.98;2.38;;;;;;;12.15;47.23;100286.28;5016557;28;20073;-57
2023/11/12 04:54:31;;;;;;;6.68;2.50;;;;;;;12.10;47.23;100287.72;5016417;28;20108;-57
2023/11/12 04:56:57;;;;;;;4.85;2.08;;;;;;;12.04;47.68;100283.81;4998836;28;20114;-57
2023/11/12 04:59:22;;;;;;;6.97;2.17;;;;;;;12.02;48.02;100291.19;4999314;28;20456;-57
2023/11/12 05:01:47;;;;;;;2.55;1.77;;;;;;;11.97;47.87;100288.13;5016705;28;20034;-57
2023/11/12 05:04:13;;;;;;;2.30;1.85;;;;;;;11.94;46.97;100296.47;5015352;28;20071;-57
2023/11/12 05:06:39;;;;;;;6.45;2.00;;;;;;;11.90;47.08;100287.00;4998875;28;20060;-57
2023/11/12 05:09:05;;;;;;;2.63;1.75;;;;;;;11.86;47.10;100296.38;5016324;28;20037;-62
2023/11/12 05:11:30;;;;;;;2.55;1.70;;;;;;;11.79;47.62;100289.91;4998686;28;20030;-57
2023/11/12 05:13:56;;;;;;;3.85;1.83;;;;;;;11.76;47.31;100302.78;4998814;28;20030;-57
2023/11/12 05:16:21;;;;;;;2.83;2.25;;;;;;;11.71;47.09;100303.22;5016487;28;20095;-57
2023/11/12 05:18:46;;;;;;;4.05;2.15;;;;;;;11.65;48.00;100315.38;4998390;28;20030;-57
2023/11/12 05:21:12;;;;;;;5.65;1.65;;;;;;;11.60;47.01;100320.34;4982159;28;20084;-57
2023/11/12 05:23:38;;;;;;;3.15;1.60;;;;;;;11.55;47.53;100313.72;4997621;28;20041;-57
2023/11/12 05:26:03;;;;;;;6.18;1.75;;;;;;;11.55;46.84;100313.72;4998248;28;20487;-56
2023/11/12 05:28:29;;;;;;;2.53;2.08;;;;;;;11.45;47.59;100305.72;5015805;28;20041;-57
2023/11/12 05:30:55;;;;;;;2.95;1.70;;;;;;;11.44;47.96;100316.59;4998377;28;20045;-57
2023/11/12 05:33:21;;;;;;;3.97;1.77;;;;;;;11.42;46.99;100313.19;5015628;28;20042;-57
2023/11/12 05:35:47;;;;;;;6.55;1.75;;;;;;;11.37;46.88;100312.81;5015643;28;20096;-57
2023/11/12 05:38:12;;;;;;;3.92;1.63;;;;;;;11.32;47.90;100312.41;4998213;28;20037;-57
2023/11/12 05:40:38;;;;;;;3.25;1.63;;;;;;;11.29;47.52;100313.53;5015779;28;20049;-57
2023/11/12 05:43:04;;;;;;;2.70;1.83;;;;;;;11.27;47.09;100312.00;4998108;28;20034;-57
2023/11/12 05:45:30;;;;;;;2.15;1.38;;;;;;;11.21;47.82;100316.13;5015522;28;20029;-57
2023/11/12 05:47:55;;;;;;;2.28;1.95;;;;;;;11.19;47.02;100319.94;4998321;28;20038;-57
2023/11/12 05:50:20;;;;;;;3.05;1.45;;;;;;;11.16;47.66;100322.91;4981797;28;20413;-56
2023/11/12 05:52:46;;;;;;;1.50;1.02;;;;;;;11.09;46.61;100323.47;4997678;28;20034;-57
2023/11/12 05:55:11;;;;;;;3.22;1.40;;;;;;;11.09;47.41;100328.84;4997703;28;20037;-57
2023/11/12 05:57:36;;;;;;;8.20;3.90;;;;;;;11.06;47.23;100331.81;4981458;28;20030;-57
2023/11/12 06:00:06;;;;;;;4.88;2.72;;;;;;;11.02;46.85;100333.09;5015253;28;20291;-57
2023/11/12 06:02:32;;;;;;;3.58;2.20;;;;;;;10.97;47.31;100324.63;5015224;28;20034;-57
2023/11/12 06:04:57;;;;;;;2.35;1.70;;;;;;;10.97;47.44;100338.03;4997760;28;20084;-57
2023/11/12 06:07:23;;;;;;;2.75;1.85;;;;;;;10.96;47.45;100344.41;5015185;28;20169;-57
2023/11/12 06:09:48;;;;;;;3.38;1.58;;;;;;;10.93;47.45;100333.97;4997491;28;20117;-57
2023/11/12 06:12:14;;;;;;;2.97;1.70;;;;;;;10.91;47.08;100338.63;4997740;28;20054;-57
2023/11/12 06:14:39;;;;;;;1.92;1.65;;;;;;;10.88;47.33;100336.22;5014919;28;20117;-57
2023/11/12 06:17:04;;;;;;;2.65;1.63;;;;;;;10.83;46.79;100333.09;5014754;28;20497;-57
2023/11/12 06:19:30;;;;;;;2.95;1.40;;;;;;;10.84;47.31;100344.69;5014984;28;20057;-57
2023/11/12 06:21:56;;;;;;;2.60;1.33;;;;;;;10.80;47.48;100333.44;5014488;28;20470;-57
2023/11/12 06:24:22;;;;;;;1.73;1.25;;;;;;;10.77;47.39;100344.41;4997101;28;20409;-57
2023/11/12 06:26:47;;;;;;;1.35;1.25;;;;;;;10.76;47.86;100342.72;4997077;28;20034;-57
2023/11/12 06:29:12;;;;;;;3.60;1.73;;;;;;;10.73;47.18;100340.31;5014547;28;20052;-57
2023/11/12 06:31:39;;;;;;;2.10;1.15;;;;;;;10.71;47.02;100339.63;4997017;28;20034;-56
2023/11/12 06:34:04;;;;;;;3.08;1.95;;;;;;;10.71;47.40;100341.47;5014287;28;20516;-57
2023/11/12 06:36:29;;;;;;;3.33;1.25;;;;;;;10.70;47.46;100345.97;4980772;28;20034;-57
2023/11/12 06:38:54;;;;;;;3.22;1.33;;;;;;;10.68;46.80;100344.41;5014466;28;20045;-57
2023/11/12 06:41:20;;;;;;;2.08;1.75;;;;;;;10.66;47.55;100347.25;5014478;28;20034;-57
2023/11/12 06:43:45;;;;;;;2.55;1.90;;;;;;;10.64;46.99;100346.53;5014308;28;20037;-57
2023/11/12 06:46:11;;;;;;;2.55;1.80;;;;;;;10.63;47.20;100344.84;4996863;28;20088;-57
2023/11/12 06:48:36;;;;;;;3.65;1.65;;;;;;;10.61;46.74;100352.16;5014085;28;20175;-57
2023/11/12 06:51:01;;;;;;;1.77;1.25;;;;;;;10.60;46.93;100344.28;4996779;28;20121;-57
2023/11/12 06:53:27;;;;;;;2.25;1.70;;;;;;;10.56;47.32;100346.38;5014051;28;20065;-56
2023/11/12 06:55:53;;;;;;;4.22;2.53;;;;;;;10.51;46.90;100343.28;5013810;28;20077;-57
2023/11/12 06:58:18;;;;;;;2.83;1.75;;;;;;;10.54;47.40;100348.38;5014047;28;20038;-57
2023/11/12 07:00:45;;;;;;;4.43;1.42;;;;;;;10.52;46.78;100353.84;5014084;28;20029;-57
2023/11/12 07:03:10;;;;;;;1.70;1.60;;;;;;;10.50;47.45;100346.94;5014167;28;20040;-57
2023/11/12 07:05:37;;;;;;;1.23;1.10;;;;;;;10.50;46.46;100354.97;5014049;28;20034;-57
2023/11/12 07:08:04;;;;;;;1.60;1.50;;;;;;;10.48;47.09;100354.28;4996715;28;20042;-57
2023/11/12 07:10:29;;;;;;;2.75;1.90;;;;;;;10.48;47.65;100352.44;5014178;28;20101;-57
2023/11/12 07:12:54;;;;;;;1.83;1.45;;;;;;;10.50;46.90;100353.16;4996529;28;20564;-57
2023/11/12 07:15:20;;;;;;;3.78;1.40;;;;;;;10.50;46.84;100352.28;5013817;28;20040;-57
2023/11/12 07:17:49;;;;;;;2.42;1.70;;;;;;;10.51;46.53;100356.69;4980067;28;20486;-57
2023/11/12 07:20:15;;;;;;;3.45;1.50;;;;;;;10.52;46.88;100356.53;4995992;28;20034;-57
2023/11/12 07:22:42;;;;;;;3.10;2.08;;;;;;;10.53;47.56;100355.56;4981447;28;20026;-57
2023/11/12 07:25:09;;;;;;;2.70;1.48;;;;;;;10.57;46.83;100355.28;4994303;28;20038;-57
2023/11/12 07:27:34;;;;;;;1.73;1.45;;;;;;;10.58;46.49;100371.19;4994094;28;20046;-57
2023/11/12 07:30:00;;;;;;;2.95;1.55;;;;;;;10.52;46.91;100353.03;4992726;28;20038;-57
2023/11/12 07:32:25;;;;;;;1.73;1.40;;;;;;;10.63;47.16;100366.28;4993906;28;20085;-57
2023/11/12 07:34:51;;;;;;;1.98;1.58;;;;;;;10.66;47.24;100366.00;4994049;28;20061;-57
2023/11/12 07:37:16;;;;;;;1.55;1.45;;;;;;;10.69;46.45;100373.72;4992756;28;20513;-57
2023/11/12 07:39:41;;;;;;;5.75;1.52;;;;;;;10.71;47.14;100371.78;4993902;28;20038;-57
2023/11/12 07:42:06;;;;;;;4.40;1.95;;;;;;;10.76;47.43;100369.50;4994650;28;20041;-56
2023/11/12 07:44:33;;;;;;;2.05;1.85;;;;;;;10.78;47.17;100362.16;4993621;28;20113;-57
2023/11/12 07:46:58;;;;;;;3.72;1.27;;;;;;;10.81;47.42;100372.59;4977366;28;20486;-57
2023/11/12 07:49:24;;;;;;;2.97;1.63;;;;;;;10.86;46.87;100367.66;4976188;28;20045;-56
2023/11/12 07:51:51;;;;;;;1.92;1.40;;;;;;;10.90;46.88;100366.41;4993861;28;20038;-57
2023/11/12 07:54:16;;;;;;;2.03;1.58;;;;;;;10.94;46.95;100373.16;4992477;28;20440;-56
2023/11/12 07:56:42;;;;;;;4.90;1.75;;;;;;;11.00;47.40;100377.94;4993700;28;20042;-57
2023/11/12 07:59:08;;;;;;;1.90;1.23;;;;;;;11.03;47.31;100383.00;4992512;28;20034;-57
2023/11/12 08:01:33;;;;;;;2.22;1.42;;;;;;;11.07;47.51;100379.06;4992229;28;20417;-57
2023/11/12 08:03:59;;;;;;;2.40;1.77;;;;;;;11.12;46.62;100381.31;4990835;28;20034;-57
2023/11/12 08:06:26;;;;;;;1.58;1.48;;;;;;;11.16;46.87;100387.25;5012938;28;20045;-61
2023/11/12 08:08:52;;;;;;;2.92;1.65;;;;;;;11.19;47.26;100385.13;4995883;28;20034;-57
2023/11/12 08:11:17;;;;;;;4.47;1.90;;;;;;;11.26;47.20;100390.72;4995516;28;20409;-57
2023/11/12 08:13:43;;;;;;;5.80;2.03;;;;;;;11.31;46.55;100385.78;5012935;28;20042;-57
2023/11/12 08:16:09;;;;;;;2.55;1.73;;;;;;;11.35;47.22;100395.22;5012845;28;20045;-57
2023/11/12 08:18:35;;;;;;;2.63;1.98;;;;;;;11.42;47.08;100393.66;4994990;28;20046;-57
2023/11/12 08:21:00;;;;;;;2.55;1.90;;;;;;;11.50;47.14;100391.13;5012607;28;20501;-58
2023/11/12 08:23:26;;;;;;;3.65;2.00;;;;;;;11.61;46.59;100393.63;4999128;28;20033;-58
2023/11/12 08:25:52;;;;;;;5.20;2.53;;;;;;;11.70;47.40;100398.13;5032684;28;20064;-58
2023/11/12 08:28:19;;;;;;;3.33;2.08;;;;;;;11.79;46.61;100404.44;5032609;28;20091;-57
2023/11/12 08:30:45;;;;;;;5.30;2.85;;;;;;;11.88;46.72;100404.41;4999019;28;20489;-58
2023/11/12 08:33:10;;;;;;;2.58;2.17;;;;;;;12.02;46.83;100392.34;5014950;28;20037;-58
2023/11/12 08:35:36;;;;;;;6.70;2.53;;;;;;;12.20;46.39;100404.81;5014847;28;20497;-57
2023/11/12 08:38:01;;;;;;;4.00;2.30;;;;;;;12.39;46.58;100386.91;4998469;28;20060;-57
2023/11/12 08:40:27;;;;;;;3.70;1.80;;;;;;;12.48;47.40;100392.19;5032522;28;20087;-57
2023/11/12 08:42:52;;;;;;;2.50;2.15;;;;;;;12.66;46.80;100397.56;5032475;28;20088;-57
2023/11/12 08:45:18;;;;;;;3.03;2.00;;;;;;;12.88;46.71;100405.19;4998839;28;20503;-57
2023/11/12 08:47:43;;;;;;;5.90;2.53;;;;;;;13.06;46.81;100395.28;5021750;28;20045;-58
2023/11/12 08:50:09;;;;;;;5.72;2.45;;;;;;;13.23;46.10;100391.72;4993688;28;20117;-57
2023/11/12 08:52:37;;;;;;;3.92;2.78;;;;;;;13.38;46.69;100398.22;4993206;28;20045;-57
2023/11/12 08:55:03;;;;;;;2.80;2.40;;;;;;;13.44;47.03;100394.06;4993143;28;20122;-58
2023/11/12 08:57:29;;;;;;;3.38;2.30;;;;;;;13.54;46.99;100396.66;5028316;28;20034;-58
2023/11/12 08:59:54;;;;;;;5.45;2.50;;;;;;;13.65;47.57;100391.00;5036218;28;20044;-58
2023/11/12 09:02:19;;;;;;;5.43;2.90;;;;;;;13.71;46.44;100395.72;5036095;28;20041;-57
2023/11/12 09:04:45;;;;;;;6.05;2.90;;;;;;;13.83;47.29;100397.97;5018345;28;20037;-57
2023/11/12 09:07:10;;;;;;;5.47;2.97;;;;;;;13.95;46.57;100390.47;4979125;28;20043;-57
2023/11/12 09:09:35;;;;;;;3.78;2.90;;;;;;;14.05;46.61;100388.47;4996401;28;20034;-58
2023/11/12 09:12:01;;;;;;;2.67;2.30;;;;;;;14.16;47.41;100390.88;4995109;28;20039;-58
2023/11/12 09:14:26;;;;;;;4.70;2.95;;;;;;;14.34;47.39;100397.06;4995267;28;20085;-58
2023/11/12 09:16:52;;;;;;;4.43;2.88;;;;;;;14.56;45.69;100392.88;4979229;28;20042;-57
2023/11/12 09:19:17;;;;;;;6.15;3.22;;;;;;;14.81;47.28;100394.63;4978852;28;20092;-58
2023/11/12 09:21:43;;;;;;;6.22;3.28;;;;;;;15.12;46.71;100395.66;4996180;28;20057;-57
2023/11/12 09:24:08;;;;;;;4.15;2.85;;;;;;;15.25;45.61;100389.72;4995083;28;20058;-58
2023/11/12 09:26:34;;;;;;;6.28;2.58;;;;;;;15.69;46.61;100388.31;4978770;28;20038;-58
2023/11/12 09:28:59;;;;;;;4.90;2.60;;;;;;;15.85;45.73;100397.41;4996162;28;20446;-58
2023/11/12 09:31:25;;;;;;;4.90;2.90;;;;;;;16.22;45.87;100389.47;4978760;28;20402;-58
2023/11/12 09:33:51;;;;;;;4.75;2.95;;;;;;;16.60;45.64;100383.22;4996176;28;20038;-58
2023/11/12 09:36:17;;;;;;;4.22;2.72;;;;;;;16.80;45.86;100379.03;4978557;28;20403;-58
2023/11/12 09:38:43;;;;;;;4.70;2.75;;;;;;;17.28;45.21;100382.38;4978501;28;20065;-58
2023/11/12 09:41:09;;;;;;;4.40;3.38;;;;;;;17.85;44.38;100382.63;4978545;28;20030;-58
2023/11/12 09:43:35;;;;;;;5.07;2.88;;;;;;;18.37;43.72;100382.50;4996130;28;20088;-58
2023/11/12 09:46:06;;;;;;;5.95;2.65;;;;;;;18.84;43.38;100388.28;4978436;28;20031;-58
2023/11/12 09:48:32;;;;;;;6.55;2.65;;;;;;;19.27;43.62;100383.63;4995990;28;20088;-58
2023/11/12 09:50:58;;;;;;;9.45;3.22;;;;;;;19.67;43.20;100379.38;5009378;28;20034;-58
2023/11/12 09:53:24;;;;;;;4.82;2.88;;;;;;;20.07;42.22;100386.72;4997838;28;20037;-58
2023/11/12 09:55:49;;;;;;;3.85;2.50;;;;;;;20.45;41.95;100384.41;5015144;28;20034;-58
2023/11/12 09:58:16;;;;;;;4.90;2.95;;;;;;;20.75;41.91;100369.44;5015166;28;20436;-58
2023/11/12 10:00:43;;;;;;;4.65;2.90;;;;;;;21.08;41.55;100374.94;4998009;28;20092;-58
2023/11/12 10:03:08;;;;;;;4.18;3.10;;;;;;;21.36;41.54;100377.47;4997963;28;20112;-58
2023/11/12 10:05:35;;;;;;;4.20;2.55;;;;;;;21.58;41.08;100378.09;5015063;28;20028;-58
2023/11/12 10:08:01;;;;;;;2.65;2.33;;;;;;;21.79;41.23;100380.56;4997688;28;20121;-59
2023/11/12 10:10:27;;;;;;;4.55;3.47;;;;;;;22.04;41.34;100384.31;4996957;28;20037;-58
2023/11/12 10:12:56;;;;;;;5.03;2.40;;;;;;;22.20;41.41;100370.19;4997348;28;20444;-58
2023/11/12 10:15:29;;;;;;;6.40;2.97;;;;;;;22.52;40.84;100374.69;5014877;28;20034;-58
2023/11/12 10:17:55;;;;;;;6.05;2.83;;;;;;;22.82;40.75;100372.22;4997180;28;20026;-58
2023/11/12 10:20:22;;;;;;;6.18;2.65;;;;;;;23.08;40.33;100379.41;5014654;28;20034;-57
2023/11/12 10:22:48;;;;;;;4.82;2.95;;;;;;;23.25;39.49;100380.56;4997260;28;20158;-58
2023/11/12 10:25:14;;;;;;;5.43;2.90;;;;;;;23.06;40.33;100376.06;4997135;28;20506;-58
2023/11/12 10:27:53;;;;;;;6.28;3.30;;;;;;;22.96;39.59;100370.25;4997120;28;20076;-57
2023/11/12 10:30:21;;;;;;;5.07;4.00;;;;;;;23.11;39.48;100376.25;4996834;28;20394;-60
2023/11/12 10:32:46;;;;;;;6.88;3.42;;;;;;;23.13;40.21;100369.50;5014714;28;20018;-58
2023/11/12 10:35:30;;;;;;;4.60;3.03;;;;;;;23.14;39.94;100368.41;5014305;28;20053;-58
2023/11/12 10:37:57;;;;;;;6.43;3.45;;;;;;;23.37;39.70;100367.81;4994846;28;20030;-59
2023/11/12 10:40:24;;;;;;;5.63;3.08;;;;;;;23.06;40.53;100376.06;5014504;28;20030;-56
2023/11/12 10:42:51;;;;;;;5.40;2.85;;;;;;;23.40;39.39;100367.41;5013600;28;20034;-57
2023/11/12 10:45:17;;;;;;;5.60;2.40;;;;;;;22.92;40.57;100374.50;4997056;28;20036;-58
2023/11/12 10:47:46;;;;;;;6.63;2.80;;;;;;;22.68;39.65;100377.97;4996870;28;20030;-58
2023/11/12 10:50:15;;;;;;;6.45;2.33;;;;;;;23.05;39.51;100374.38;4997152;28;20030;-58
2023/11/12 10:52:42;;;;;;;6.35;2.40;;;;;;;22.68;39.35;100384.28;4997052;28;20034;-58
2023/11/12 10:55:09;;;;;;;7.13;3.05;;;;;;;22.84;39.01;100385.66;4996939;28;20084;-57
2023/11/12 10:57:35;;;;;;;5.90;2.60;;;;;;;22.37;40.35;100385.03;5014952;28;20026;-57
2023/11/12 11:00:05;;;;;;;10.20;2.92;;;;;;;22.88;38.80;100387.75;4999119;28;20057;-57
2023/11/12 11:02:32;;;;;;;4.70;2.78;;;;;;;22.33;39.06;100389.28;4997026;28;20379;-57
2023/11/12 11:04:58;;;;;;;4.68;3.00;;;;;;;22.45;40.11;100384.78;4996822;28;20030;-63
2023/11/12 11:07:24;;;;;;;6.43;2.20;;;;;;;22.33;39.84;100380.25;4996412;28;20077;-58
2023/11/12 11:09:50;;;;;;;5.30;2.42;;;;;;;22.94;38.70;100388.75;4996295;28;20053;-58
2023/11/12 11:12:16;;;;;;;5.90;2.20;;;;;;;23.16;38.47;100387.34;4996467;28;20084;-58
2023/11/12 11:14:41;;;;;;;7.55;2.05;;;;;;;23.52;38.12;100383.91;4980004;28;20041;-57
2023/11/12 11:17:08;;;;;;;9.75;2.35;;;;;;;23.75;38.54;100384.97;5013760;28;20033;-58
2023/11/12 11:19:48;;;;;;;4.50;1.95;;;;;;;24.00;37.84;100395.00;5013666;28;20502;-58